Time;durP1;ratioP1;P1;durP2;ratioP2;P2;SDS_P1;SDS_P2;PMS_P1;PMS_P2;Temp;Humidity;BMP_temperature;BMP_pressure;BME280_temperature;BME280_humidity;BME280_pressure;Samples;Min_cycle;Max_cycle;Signal;HPM_P1;HPM_P2
2023/08/23 00:00:10;;;;;;;;;;;;;;;20.09;46.04;101976.66;4842687;29;118789;-74
2023/08/23 00:02:40;;;;;;;;;;;;;;;20.06;46.00;101971.47;4825137;29;125304;-74
2023/08/23 00:05:07;;;;;;;;;;;;;;;20.05;46.02;101969.75;4824957;29;123665;-74
2023/08/23 00:07:34;;;;;;;;;;;;;;;20.03;46.17;101973.41;4830610;29;119728;-74
2023/08/23 00:10:01;;;;;;;;;;;;;;;20.03;46.14;101973.41;4841830;29;118808;-74
2023/08/23 00:12:28;;;;;;;;;;;;;;;20.03;46.10;101970.72;4825993;29;123559;-74
2023/08/23 00:14:55;;;;;;;;;;;;;;;20.03;46.22;101973.41;4830744;29;123823;-74
2023/08/23 00:17:21;;;;;;;;;;;;;;;20.01;46.07;101969.97;4829654;29;119556;-74
2023/08/23 00:19:48;;;;;;;;;;;;;;;20.01;46.24;101972.66;4825444;29;118874;-74
2023/08/23 00:22:15;;;;;;;;;;;;;;;20.01;46.23;101966.41;4826432;29;124708;-74
2023/08/23 00:24:42;;;;;;;;;;;;;;;19.99;46.23;101966.50;4830725;29;124144;-74
2023/08/23 00:27:09;;;;;;;;;;;;;;;19.97;46.07;101968.44;4830600;29;121153;-74
2023/08/23 00:29:37;;;;;;;;;;;;;;;19.96;46.08;101960.47;4830456;29;118946;-74
2023/08/23 00:32:05;;;;;;;;;;;;;;;19.93;46.16;101961.56;4845070;29;124184;-74
2023/08/23 00:34:32;;;;;;;;;;;;;;;19.89;46.21;101954.66;4812067;29;123167;-74
2023/08/23 00:36:59;;;;;;;;;;;;;;;19.88;46.21;101952.94;4830784;29;119536;-74
2023/08/23 00:39:26;;;;;;;;;;;;;;;19.88;46.21;101961.00;4827966;29;119258;-74
2023/08/23 00:41:54;;;;;;;;;;;;;;;19.86;46.12;101954.84;4816425;29;123618;-74
2023/08/23 00:44:21;;;;;;;;;;;;;;;19.84;46.34;101956.78;4831830;29;124974;-74
2023/08/23 00:46:48;;;;;;;;;;;;;;;19.82;46.30;101953.34;4848600;29;119274;-74
2023/08/23 00:49:15;;;;;;;;;;;;;;;19.80;46.22;101944.53;4833155;29;118861;-74
2023/08/23 00:51:42;;;;;;;;;;;;;;;19.79;46.40;101938.25;4832356;29;123741;-74
2023/08/23 00:54:11;;;;;;;;;;;;;;;19.78;46.31;101946.44;4833992;29;125414;-74
2023/08/23 00:56:38;;;;;;;;;;;;;;;19.77;46.31;101950.09;4830393;29;118704;-74
2023/08/23 00:59:07;;;;;;;;;;;;;;;19.74;46.30;101935.03;4843512;29;118906;-74
2023/08/23 01:01:34;;;;;;;;;;;;;;;19.73;46.26;101937.81;4833552;29;124466;-74
2023/08/23 01:04:01;;;;;;;;;;;;;;;19.71;46.35;101931.66;4833121;29;123952;-74
2023/08/23 01:06:31;;;;;;;;;;;;;;;19.68;46.47;101934.53;4839494;29;118829;-74
2023/08/23 01:09:06;;;;;;;;;;;;;;;19.67;46.37;101932.81;4832682;29;118097;-74
2023/08/23 01:11:32;;;;;;;;;;;;;;;19.64;46.51;101923.97;4824160;29;125299;-74
2023/08/23 01:14:14;;;;;;;;;;;;;;;19.61;46.59;101934.94;4831516;29;123298;-74
2023/08/23 01:16:44;;;;;;;;;;;;;;;19.60;46.48;101925.16;4830590;29;120549;-74
2023/08/23 01:19:24;;;;;;;;;;;;;;;19.55;46.42;101929.97;4833326;29;121016;-74
2023/08/23 01:21:55;;;;;;;;;;;;;;;19.53;46.62;101937.25;4825624;29;124013;-74
2023/08/23 01:24:22;;;;;;;;;;;;;;;19.52;46.50;101940.91;4814658;29;124045;-74
2023/08/23 01:26:49;;;;;;;;;;;;;;;19.50;46.73;101942.84;4847698;29;120309;-74
2023/08/23 01:29:16;;;;;;;;;;;;;;;19.49;46.77;101943.78;4827909;29;118434;-74
2023/08/23 01:31:45;;;;;;;;;;;;;;;19.48;46.73;101950.16;4846985;29;125655;-74
2023/08/23 01:34:17;;;;;;;;;;;;;;;19.47;46.53;101953.78;4834388;29;124343;-74
2023/08/23 01:36:45;;;;;;;;;;;;;;;19.44;46.56;101948.63;4828152;28;119686;-74
2023/08/23 01:39:12;;;;;;;;;;;;;;;19.42;46.63;101953.22;4831925;29;117732;-74
2023/08/23 01:41:40;;;;;;;;;;;;;;;19.40;46.57;101953.34;4846058;29;125263;-74
2023/08/23 01:44:06;;;;;;;;;;;;;;;19.36;46.49;101946.41;4832715;29;123205;-74
2023/08/23 01:46:34;;;;;;;;;;;;;;;19.32;46.68;101939.50;4832061;29;119695;-74
2023/08/23 01:49:01;;;;;;;;;;;;;;;19.30;46.76;101956.72;4831229;29;118892;-75
2023/08/23 01:51:28;;;;;;;;;;;;;;;19.26;46.71;101940.78;4832641;29;124716;-74
2023/08/23 01:53:55;;;;;;;;;;;;;;;19.24;46.78;101942.69;4837402;29;123461;-74
2023/08/23 01:56:22;;;;;;;;;;;;;;;19.22;46.67;101952.69;4846869;28;120885;-74
2023/08/23 01:58:49;;;;;;;;;;;;;;;19.19;46.88;101950.22;4848405;28;117900;-74
2023/08/23 02:01:16;;;;;;;;;;;;;;;19.18;46.90;101948.47;4844397;29;124560;-74
2023/08/23 02:03:42;;;;;;;;;;;;;;;19.17;46.78;101936.00;4830818;29;124076;-74
2023/08/23 02:06:09;;;;;;;;;;;;;;;19.16;46.89;101939.66;4831267;29;120394;-74
2023/08/23 02:08:37;;;;;;;;;;;;;;;19.11;46.79;101936.38;4829820;28;120655;-74
2023/08/23 02:11:04;;;;;;;;;;;;;;;19.08;47.00;101936.59;4829890;29;124328;-74
2023/08/23 02:13:32;;;;;;;;;;;;;;;19.06;47.00;101938.50;4832680;29;124672;-74
2023/08/23 02:15:59;;;;;;;;;;;;;;;19.05;47.01;101936.78;4828605;29;119885;-74
2023/08/23 02:18:26;;;;;;;;;;;;;;;19.02;47.01;101936.97;4831991;29;118833;-74
2023/08/23 02:20:54;;;;;;;;;;;;;;;19.00;47.04;101933.53;4829578;29;123100;-74
2023/08/23 02:23:21;;;;;;;;;;;;;;;18.97;46.98;101928.38;4832947;29;124072;-74
2023/08/23 02:25:48;;;;;;;;;;;;;;;18.94;47.07;101933.91;4825947;29;118104;-74
2023/08/23 02:28:15;;;;;;;;;;;;;;;18.92;47.07;101919.72;4829994;29;118795;-74
2023/08/23 02:30:43;;;;;;;;;;;;;;;18.91;47.01;101923.38;4832575;29;124439;-74
2023/08/23 02:33:10;;;;;;;;;;;;;;;18.91;47.09;101928.72;4836623;29;124037;-74
2023/08/23 02:35:41;;;;;;;;;;;;;;;18.89;46.92;101931.50;4825939;29;118965;-74
2023/08/23 02:38:08;;;;;;;;;;;;;;;18.86;47.04;101927.19;4826301;29;120813;-74
2023/08/23 02:40:35;;;;;;;;;;;;;;;18.84;47.02;101929.13;4831858;29;123303;-74
2023/08/23 02:43:02;;;;;;;;;;;;;;;18.83;47.06;101921.16;4831135;29;122765;-74
2023/08/23 02:45:30;;;;;;;;;;;;;;;18.81;47.19;101923.94;4831615;28;119465;-74
2023/08/23 02:47:58;;;;;;;;;;;;;;;18.82;47.24;101914.94;4832344;29;119973;-74
2023/08/23 02:50:25;;;;;;;;;;;;;;;18.80;47.04;101924.91;4832010;29;124117;-74
2023/08/23 02:52:51;;;;;;;;;;;;;;;18.78;47.19;101918.75;4823552;29;123169;-74
2023/08/23 02:55:19;;;;;;;;;;;;;;;18.76;47.22;101923.34;4831711;29;120591;-74
2023/08/23 02:57:46;;;;;;;;;;;;;;;18.74;47.08;101927.97;4828350;29;119117;-74
2023/08/23 03:00:15;;;;;;;;;;;;;;;18.72;47.35;101924.47;4821815;29;125554;-74
2023/08/23 03:02:42;;;;;;;;;;;;;;;18.71;47.26;101917.41;4828509;29;123763;-74
2023/08/23 03:05:09;;;;;;;;;;;;;;;18.69;47.26;101924.69;4810337;29;121458;-74
2023/08/23 03:07:36;;;;;;;;;;;;;;;18.68;47.15;101920.25;4822961;29;118976;-75
2023/08/23 03:10:03;;;;;;;;;;;;;;;18.66;47.26;101908.75;4830018;29;123626;-74
2023/08/23 03:12:30;;;;;;;;;;;;;;;18.64;47.23;101916.06;4832279;29;124232;-75
2023/08/23 03:14:57;;;;;;;;;;;;;;;18.61;47.17;101913.53;4832323;29;119724;-74
2023/08/23 03:17:24;;;;;;;;;;;;;;;18.57;47.16;101914.69;4830430;29;118931;-74
2023/08/23 03:19:51;;;;;;;;;;;;;;;18.57;47.40;101920.06;4825611;29;125306;-75
2023/08/23 03:22:19;;;;;;;;;;;;;;;18.55;47.24;101911.25;4830985;29;124021;-74
2023/08/23 03:24:46;;;;;;;;;;;;;;;18.53;47.56;101913.16;4837682;28;118898;-74
2023/08/23 03:27:12;;;;;;;;;;;;;;;18.51;47.39;101899.00;4831534;29;119181;-74
2023/08/23 03:29:43;;;;;;;;;;;;;;;18.49;47.45;101907.97;4845549;29;123229;-75
2023/08/23 03:32:14;;;;;;;;;;;;;;;18.46;47.34;101901.97;4829056;29;96833;-76
2023/08/23 03:34:46;;;;;;;;;;;;;;;18.43;47.19;101892.28;4815231;29;120921;-74
2023/08/23 03:37:16;;;;;;;;;;;;;;;18.39;47.44;101896.09;4830082;29;117984;-75
2023/08/23 03:39:44;;;;;;;;;;;;;;;18.37;47.45;101908.75;4830925;29;124043;-75
2023/08/23 03:42:11;;;;;;;;;;;;;;;18.36;47.28;101907.00;4831194;29;123617;-75
2023/08/23 03:44:38;;;;;;;;;;;;;;;18.33;47.37;101904.53;4830460;29;120996;-75
2023/08/23 03:47:05;;;;;;;;;;;;;;;18.33;47.43;101909.91;4832428;29;120052;-75
2023/08/23 03:49:33;;;;;;;;;;;;;;;18.32;47.40;101915.34;4832238;29;124418;-75
2023/08/23 03:52:00;;;;;;;;;;;;;;;18.30;47.42;101912.75;4831177;29;125245;-75
2023/08/23 03:54:28;;;;;;;;;;;;;;;18.29;47.58;101917.25;4831158;29;121028;-75
2023/08/23 03:56:55;;;;;;;;;;;;;;;18.28;47.59;101910.16;4831053;29;118308;-75
2023/08/23 03:59:22;;;;;;;;;;;;;;;18.26;47.61;101905.84;4832146;29;124396;-75
2023/08/23 04:01:49;;;;;;;;;;;;;;;18.23;47.59;101914.06;4831443;29;125883;-75
2023/08/23 04:04:16;;;;;;;;;;;;;;;18.21;47.58;101919.53;4831687;29;119679;-75
2023/08/23 04:06:43;;;;;;;;;;;;;;;18.19;47.45;101920.59;4828458;29;118855;-75
2023/08/23 04:09:10;;;;;;;;;;;;;;;18.18;47.59;101918.88;4829250;29;124447;-75
2023/08/23 04:11:37;;;;;;;;;;;;;;;18.16;47.50;101920.75;4829843;29;123686;-75
2023/08/23 04:14:04;;;;;;;;;;;;;;;18.14;47.53;101922.66;4830020;29;121406;-75
2023/08/23 04:16:31;;;;;;;;;;;;;;;18.13;47.63;101927.19;4833219;29;119325;-75
2023/08/23 04:18:58;;;;;;;;;;;;;;;18.13;47.58;101926.31;4834313;29;124399;-75
2023/08/23 04:21:26;;;;;;;;;;;;;;;18.12;47.66;101930.81;4846229;29;125716;-75
2023/08/23 04:23:53;;;;;;;;;;;;;;;18.12;47.72;101924.56;4833202;29;118795;-75
2023/08/23 04:26:20;;;;;;;;;;;;;;;18.12;47.68;101924.56;4834277;29;117770;-75
2023/08/23 04:28:47;;;;;;;;;;;;;;;18.13;47.73;101926.31;4833671;29;124168;-74
2023/08/23 04:31:14;;;;;;;;;;;;;;;18.12;47.70;101919.22;4833731;29;123192;-75
2023/08/23 04:33:47;;;;;;;;;;;;;;;18.09;47.75;101931.84;4833753;29;121307;-75
2023/08/23 04:36:15;;;;;;;;;;;;;;;18.08;47.65;101929.25;4830530;29;119502;-75
2023/08/23 04:38:42;;;;;;;;;;;;;;;18.06;47.64;101926.69;4831691;29;124110;-75
2023/08/23 04:41:09;;;;;;;;;;;;;;;18.05;47.69;101924.94;4854124;29;123341;-79
2023/08/23 04:43:36;;;;;;;;;;;;;;;18.04;47.61;101922.34;4836813;29;117984;-75
2023/08/23 04:46:09;;;;;;;;;;;;;;;18.00;47.64;101927.03;4844853;29;118623;-75
2023/08/23 04:48:37;;;;;;;;;;;;;;;18.00;47.89;101931.53;4832897;29;125718;-75
2023/08/23 04:51:08;;;;;;;;;;;;;;;18.01;47.82;101927.91;4834454;29;123741;-75
2023/08/23 04:53:35;;;;;;;;;;;;;;;17.99;47.86;101925.31;4849168;29;120632;-75
2023/08/23 04:56:03;;;;;;;;;;;;;;;18.00;47.90;101921.66;4833562;29;118048;-75
2023/08/23 04:58:31;;;;;;;;;;;;;;;18.02;47.93;101924.28;4846603;29;125444;-75
2023/08/23 05:01:03;;;;;;;;;;;;;;;18.03;48.00;101926.88;4823154;29;125682;-75
2023/08/23 05:03:33;;;;;;;;;;;;;;;18.03;47.95;101926.88;4846755;29;118363;-74
2023/08/23 05:06:00;;;;;;;;;;;;;;;18.04;48.12;101923.22;4818110;29;118401;-75
2023/08/23 05:08:28;;;;;;;;;;;;;;;18.04;48.00;101923.22;4847368;29;123496;-75
2023/08/23 05:10:59;;;;;;;;;;;;;;;18.04;47.99;101923.22;4847759;29;124035;-75
2023/08/23 05:13:26;;;;;;;;;;;;;;;18.05;48.12;101924.09;4833434;29;119407;-74
2023/08/23 05:15:53;;;;;;;;;;;;;;;18.06;48.24;101917.75;4831001;29;118191;-75
2023/08/23 05:18:21;;;;;;;;;;;;;;;18.07;48.09;101916.81;4848547;29;123988;-75
2023/08/23 05:20:55;;;;;;;;;;;;;;;18.11;48.30;101917.50;4833296;29;126185;-75
2023/08/23 05:23:23;;;;;;;;;;;;;;;18.15;48.29;101916.38;4833438;29;120481;-75
2023/08/23 05:25:51;;;;;;;;;;;;;;;18.19;48.38;101909.84;4831479;29;118848;-75
2023/08/23 05:28:18;;;;;;;;;;;;;;;18.23;48.25;101906.03;4828139;29;123669;-75
2023/08/23 05:30:47;;;;;;;;;;;;;;;18.28;48.46;101910.16;4833398;29;124859;-75
2023/08/23 05:33:17;;;;;;;;;;;;;;;18.33;48.36;101907.22;4832363;29;119154;-75
2023/08/23 05:35:45;;;;;;;;;;;;;;;18.37;48.47;101908.75;4847643;29;118633;-75
2023/08/23 05:38:12;;;;;;;;;;;;;;;18.43;48.57;101911.03;4832419;29;123701;-75
2023/08/23 05:40:39;;;;;;;;;;;;;;;18.47;48.52;101907.22;4849247;29;125456;-75
2023/08/23 05:43:06;;;;;;;;;;;;;;;18.52;48.41;101911.47;4834533;29;119945;-75
2023/08/23 05:45:33;;;;;;;;;;;;;;;18.58;48.41;101917.28;4846214;29;118515;-75
2023/08/23 05:48:00;;;;;;;;;;;;;;;18.66;48.60;101919.50;4835817;28;123443;-75
2023/08/23 05:50:27;;;;;;;;;;;;;;;18.72;48.53;101912.88;4812667;29;123155;-75
2023/08/23 05:52:54;;;;;;;;;;;;;;;18.78;48.62;101913.38;4830249;29;120498;-75
2023/08/23 05:55:21;;;;;;;;;;;;;;;18.85;48.64;101920.13;4832403;29;119135;-75
2023/08/23 05:57:48;;;;;;;;;;;;;;;18.92;48.45;101914.38;4829557;29;124189;-75
2023/08/23 06:00:16;;;;;;;;;;;;;;;18.97;48.61;101923.84;4830204;29;124090;-75
2023/08/23 06:02:43;;;;;;;;;;;;;;;19.02;48.52;101918.19;4831416;29;120986;-75
2023/08/23 06:05:14;;;;;;;;;;;;;;;19.08;48.60;101925.88;4829999;29;118692;-75
2023/08/23 06:07:41;;;;;;;;;;;;;;;19.15;48.62;101927.16;4823316;29;124426;-75
2023/08/23 06:10:09;;;;;;;;;;;;;;;19.21;48.72;101926.81;4830394;29;124037;-75
2023/08/23 06:12:36;;;;;;;;;;;;;;;19.29;48.69;101930.78;4825628;29;120040;-76
2023/08/23 06:15:04;;;;;;;;;;;;;;;19.36;48.49;101924.06;4829781;29;119499;-75
2023/08/23 06:17:32;;;;;;;;;;;;;;;19.42;48.54;101923.66;4830037;29;126073;-75
2023/08/23 06:19:59;;;;;;;;;;;;;;;19.49;48.69;101925.00;4832798;29;124308;-75
2023/08/23 06:22:26;;;;;;;;;;;;;;;19.57;48.72;101925.38;4843753;29;119611;-75
2023/08/23 06:24:53;;;;;;;;;;;;;;;19.65;48.65;101925.72;4829391;29;119319;-75
2023/08/23 06:27:20;;;;;;;;;;;;;;;19.74;48.69;101928.78;4829607;29;123439;-75
2023/08/23 06:29:46;;;;;;;;;;;;;;;19.82;48.80;101926.47;4821578;29;124147;-75
2023/08/23 06:32:13;;;;;;;;;;;;;;;19.92;48.82;101922.16;4826759;29;118634;-74
2023/08/23 06:34:40;;;;;;;;;;;;;;;20.03;48.74;101930.38;4827089;29;119966;-74
2023/08/23 06:37:07;;;;;;;;;;;;;;;20.15;48.86;101933.19;4827595;29;124191;-75
2023/08/23 06:39:34;;;;;;;;;;;;;;;20.29;48.86;101934.97;4821993;29;124142;-74
2023/08/23 06:42:01;;;;;;;;;;;;;;;20.40;48.79;101938.63;4815464;29;118919;-75
2023/08/23 06:44:29;;;;;;;;;;;;;;;20.53;48.91;101943.13;4830016;29;117760;-75
2023/08/23 06:46:56;;;;;;;;;;;;;;;20.67;48.87;101940.38;4831393;29;123448;-75
2023/08/23 06:49:23;;;;;;;;;;;;;;;20.79;48.99;101941.34;4829037;29;123497;-75
2023/08/23 06:51:50;;;;;;;;;;;;;;;20.93;49.04;101940.38;4831056;29;119853;-75
2023/08/23 06:54:17;;;;;;;;;;;;;;;21.10;48.95;101942.72;4823605;29;119120;-75
2023/08/23 06:56:45;;;;;;;;;;;;;;;21.26;49.08;101936.22;4827738;29;124542;-75
2023/08/23 06:59:12;;;;;;;;;;;;;;;21.42;49.01;101936.81;4828725;29;124612;-75
2023/08/23 07:01:39;;;;;;;;;;;;;;;21.62;49.05;101937.19;4831335;29;119420;-75
2023/08/23 07:04:06;;;;;;;;;;;;;;;21.80;49.14;101941.22;4831749;29;119614;-75
2023/08/23 07:06:33;;;;;;;;;;;;;;;22.00;49.23;101946.94;4825601;29;124288;-75
2023/08/23 07:09:00;;;;;;;;;;;;;;;22.19;49.22;101947.25;4826282;29;124684;-75
2023/08/23 07:11:27;;;;;;;;;;;;;;;22.40;49.25;101950.16;4825555;29;120279;-75
2023/08/23 07:13:54;;;;;;;;;;;;;;;22.61;49.29;101947.63;4830446;29;118694;-75
2023/08/23 07:16:21;;;;;;;;;;;;;;;22.82;49.26;101941.50;4832239;29;124224;-75
2023/08/23 07:18:48;;;;;;;;;;;;;;;23.02;49.25;101951.59;4827410;29;124084;-75
2023/08/23 07:21:15;;;;;;;;;;;;;;;23.24;49.16;101952.56;4830260;29;120047;-75
2023/08/23 07:23:42;;;;;;;;;;;;;;;23.45;49.23;101952.66;4826325;29;119631;-75
2023/08/23 07:26:09;;;;;;;;;;;;;;;23.63;48.94;101950.28;4817966;29;124266;-75
2023/08/23 07:28:36;;;;;;;;;;;;;;;23.81;49.19;101948.78;4842590;29;124119;-76
2023/08/23 07:31:03;;;;;;;;;;;;;;;24.00;49.12;101948.09;4831325;29;120439;-76
2023/08/23 07:33:30;;;;;;;;;;;;;;;24.20;48.97;101954.50;4839574;29;118253;-75
2023/08/23 07:36:01;;;;;;;;;;;;;;;24.39;48.77;101952.94;4828008;29;124379;-76
2023/08/23 07:38:32;;;;;;;;;;;;;;;24.56;48.88;101954.19;4822548;29;124794;-75
2023/08/23 07:41:00;;;;;;;;;;;;;;;24.73;48.98;101955.44;4830559;29;120620;-75
2023/08/23 07:43:26;;;;;;;;;;;;;;;24.89;49.05;101960.38;4820756;29;119585;-76
2023/08/23 07:45:54;;;;;;;;;;;;;;;25.04;48.89;101965.28;4820645;29;124187;-76
2023/08/23 07:48:22;;;;;;;;;;;;;;;25.21;48.60;101965.63;4825925;29;124662;-76
2023/08/23 07:50:55;;;;;;;;;;;;;;;25.36;48.57;101972.44;4833388;29;121517;-75
2023/08/23 07:53:23;;;;;;;;;;;;;;;25.51;48.43;101977.47;4829720;29;120532;-75
2023/08/23 07:55:50;;;;;;;;;;;;;;;25.64;48.79;101972.63;4832829;29;125269;-76
2023/08/23 07:58:17;;;;;;;;;;;;;;;25.81;48.66;101974.66;4834097;29;124012;-75
2023/08/23 08:00:44;;;;;;;;;;;;;;;25.95;48.54;101986.13;4834541;29;119719;-76
2023/08/23 08:03:11;;;;;;;;;;;;;;;26.07;48.17;101974.13;4829348;29;118696;-75
2023/08/23 08:05:38;;;;;;;;;;;;;;;26.18;48.22;101973.09;4832547;29;123081;-76
2023/08/23 08:08:05;;;;;;;;;;;;;;;26.28;48.19;101978.56;4834296;29;124926;-75
2023/08/23 08:10:36;;;;;;;;;;;;;;;26.35;48.24;101982.38;4843352;29;119209;-76
2023/08/23 08:13:03;;;;;;;;;;;;;;;26.43;48.00;101977.09;4831220;29;118765;-76
2023/08/23 08:15:33;;;;;;;;;;;;;;;26.52;47.95;101973.50;4831818;29;124851;-76
2023/08/23 08:18:01;;;;;;;;;;;;;;;26.61;48.02;101975.34;4829522;29;122914;-75
2023/08/23 08:20:27;;;;;;;;;;;;;;;26.72;48.16;101973.47;4832662;29;120730;-75
2023/08/23 08:22:54;;;;;;;;;;;;;;;26.80;48.08;101976.31;4825710;29;118473;-76
2023/08/23 08:25:21;;;;;;;;;;;;;;;26.88;47.83;101968.28;4824528;29;124413;-76
2023/08/23 08:27:50;;;;;;;;;;;;;;;26.95;48.06;101974.81;4818667;29;124921;-76
2023/08/23 08:30:17;;;;;;;;;;;;;;;27.06;47.89;101972.94;4835599;29;119606;-75
2023/08/23 08:32:44;;;;;;;;;;;;;;;27.14;47.57;101978.47;4830573;29;118990;-75
2023/08/23 08:35:11;;;;;;;;;;;;;;;27.26;47.85;101982.75;4828617;29;124802;-75
2023/08/23 08:37:38;;;;;;;;;;;;;;;27.36;47.88;101983.53;4828075;29;124532;-76
2023/08/23 08:40:06;;;;;;;;;;;;;;;27.48;47.43;101980.59;4834889;29;120546;-76
2023/08/23 08:42:33;;;;;;;;;;;;;;;27.56;47.63;101978.00;4830662;29;119918;-75
2023/08/23 08:45:00;;;;;;;;;;;;;;;27.63;47.47;101978.22;4835190;29;125156;-76
2023/08/23 08:47:26;;;;;;;;;;;;;;;27.69;47.69;101978.47;4827724;29;124323;-76
2023/08/23 08:49:54;;;;;;;;;;;;;;;27.79;47.51;101972.97;4834836;29;120395;-76
2023/08/23 08:52:24;;;;;;;;;;;;;;;27.90;47.53;101963.75;4834105;29;118931;-75
2023/08/23 08:54:52;;;;;;;;;;;;;;;28.00;47.45;101969.94;4820780;29;124866;-75
2023/08/23 08:57:19;;;;;;;;;;;;;;;28.07;47.10;101965.59;4832981;29;123981;-75
2023/08/23 08:59:47;;;;;;;;;;;;;;;28.15;47.32;101971.09;4828590;29;119336;-76
2023/08/23 09:02:17;;;;;;;;;;;;;;;28.20;47.30;101969.75;4836889;29;118969;-75
2023/08/23 09:04:46;;;;;;;;;;;;;;;28.24;47.08;101965.75;4839415;29;125360;-76
2023/08/23 09:07:14;;;;;;;;;;;;;;;28.29;46.95;101963.38;4828196;29;124601;-76
2023/08/23 09:09:43;;;;;;;;;;;;;;;28.33;47.08;101960.19;4831669;29;121187;-75
2023/08/23 09:12:10;;;;;;;;;;;;;;;28.42;47.04;101963.81;4833751;29;118886;-75
2023/08/23 09:14:39;;;;;;;;;;;;;;;28.51;47.20;101960.13;4845424;29;125296;-75
2023/08/23 09:17:07;;;;;;;;;;;;;;;28.63;47.10;101965.34;4817487;29;123403;-75
2023/08/23 09:19:35;;;;;;;;;;;;;;;28.69;46.96;101948.38;4824824;29;119109;-75
2023/08/23 09:22:03;;;;;;;;;;;;;;;28.72;46.98;101953.47;4847102;29;117567;-75
2023/08/23 09:24:30;;;;;;;;;;;;;;;28.76;46.80;101949.41;4825108;29;124196;-75
2023/08/23 09:26:56;;;;;;;;;;;;;;;28.83;46.93;101955.91;4824913;29;124076;-76
2023/08/23 09:29:24;;;;;;;;;;;;;;;28.91;46.76;101958.72;4822063;29;121267;-75
2023/08/23 09:31:51;;;;;;;;;;;;;;;28.97;46.52;101959.06;4827555;29;119989;-76
2023/08/23 09:34:17;;;;;;;;;;;;;;;29.00;46.63;101956.84;4832260;29;123328;-75
2023/08/23 09:36:46;;;;;;;;;;;;;;;29.06;46.74;101952.63;4828689;29;123704;-76
2023/08/23 09:39:17;;;;;;;;;;;;;;;29.10;46.35;101956.72;4826363;29;119660;-75
2023/08/23 09:41:44;;;;;;;;;;;;;;;29.14;46.65;101952.72;4830771;29;118779;-76
2023/08/23 09:44:26;;;;;;;;;;;;;;;29.23;46.54;101957.16;4830927;29;124147;-75
2023/08/23 09:46:55;;;;;;;;;;;;;;;29.31;46.42;101961.81;4828963;29;124300;-75
2023/08/23 09:49:23;;;;;;;;;;;;;;;29.37;46.31;101958.41;4827157;29;119637;-75
2023/08/23 09:51:51;;;;;;;;;;;;;;;29.43;46.39;101957.72;4818141;29;119043;-75
2023/08/23 09:54:20;;;;;;;;;;;;;;;29.49;46.42;101967.13;4829633;29;125779;-75
2023/08/23 09:57:08;;;;;;;;;;;;;;;29.55;46.23;101965.59;4824429;29;124582;-75
2023/08/23 09:59:35;;;;;;;;;;;;;;;29.61;46.42;101960.34;4827641;29;119495;-75
2023/08/23 10:02:04;;;;;;;;;;;;;;;29.67;46.22;101954.22;4832003;29;118398;-75
2023/08/23 10:04:32;;;;;;;;;;;;;;;29.68;46.03;101944.97;4833930;29;124879;-75
2023/08/23 10:06:59;;;;;;;;;;;;;;;29.70;46.08;101953.88;4828697;29;124957;-75
2023/08/23 10:09:26;;;;;;;;;;;;;;;29.74;46.18;101959.03;4828245;29;119744;-74
2023/08/23 10:11:53;;;;;;;;;;;;;;;29.77;46.16;101953.22;4823313;29;119107;-75
2023/08/23 10:14:22;;;;;;;;;;;;;;;29.84;46.31;101955.13;4825410;29;124899;-75
2023/08/23 10:16:49;;;;;;;;;;;;;;;29.91;46.12;101955.28;4827190;29;124946;-74
2023/08/23 10:19:16;;;;;;;;;;;;;;;29.95;46.08;101951.22;4820521;29;118605;-75
2023/08/23 10:21:44;;;;;;;;;;;;;;;30.00;46.01;101948.78;4836719;29;119904;-75
2023/08/23 10:24:11;;;;;;;;;;;;;;;30.06;45.79;101947.25;4820631;29;123902;-74
2023/08/23 10:26:46;;;;;;;;;;;;;;;30.11;46.06;101949.50;4839492;28;122826;-73
2023/08/23 10:29:13;;;;;;;;;;;;;;;30.14;45.78;101952.75;4843591;29;119325;-74
2023/08/23 10:31:50;;;;;;;;;;;;;;;30.16;45.67;101958.00;4846485;29;118924;-74
2023/08/23 10:34:22;;;;;;;;;;;;;;;30.17;45.76;101959.72;4830544;29;125066;-73
2023/08/23 10:36:49;;;;;;;;;;;;;;;30.16;45.60;101952.53;4832416;29;124347;-74
2023/08/23 10:39:16;;;;;;;;;;;;;;;30.16;45.60;101947.06;4833740;29;120289;-74
2023/08/23 10:41:43;;;;;;;;;;;;;;;30.18;45.61;101950.53;4832014;29;118508;-74
2023/08/23 10:44:14;;;;;;;;;;;;;;;30.17;45.53;101949.66;4843315;29;123697;-74
2023/08/23 10:46:45;;;;;;;;;;;;;;;30.17;45.54;101951.53;4831508;29;124267;-74
2023/08/23 10:49:13;;;;;;;;;;;;;;;30.19;45.51;101941.28;4828619;29;119241;-74
2023/08/23 10:51:41;;;;;;;;;;;;;;;30.23;45.52;101948.09;4827987;29;118511;-74
2023/08/23 10:54:12;;;;;;;;;;;;;;;30.27;45.60;101938.53;4830853;29;124261;-74
2023/08/23 10:56:39;;;;;;;;;;;;;;;30.28;45.51;101945.72;4829657;29;124362;-74
2023/08/23 10:59:09;;;;;;;;;;;;;;;30.27;45.48;101939.41;4828952;29;119571;-74
2023/08/23 11:01:39;;;;;;;;;;;;;;;30.28;45.27;101937.50;4832197;29;119180;-73
2023/08/23 11:04:07;;;;;;;;;;;;;;;30.31;45.26;101939.03;4848005;28;123057;-74
2023/08/23 11:06:35;;;;;;;;;;;;;;;30.33;45.42;101945.22;4833025;29;124476;-74
2023/08/23 11:09:02;;;;;;;;;;;;;;;30.31;45.32;101934.44;4833308;29;120452;-74
2023/08/23 11:11:29;;;;;;;;;;;;;;;30.31;45.15;101934.44;4828779;29;119727;-73
2023/08/23 11:13:56;;;;;;;;;;;;;;;30.34;45.30;101925.91;4834216;29;125205;-74
2023/08/23 11:16:23;;;;;;;;;;;;;;;30.40;45.45;101927.09;4829093;29;123044;-73
2023/08/23 11:18:50;;;;;;;;;;;;;;;30.48;45.33;101924.38;4828425;29;119411;-73
2023/08/23 11:21:17;;;;;;;;;;;;;;;30.55;45.21;101916.31;4833513;29;119408;-73
2023/08/23 11:23:44;;;;;;;;;;;;;;;30.59;45.01;101920.38;4832758;29;124077;-74
2023/08/23 11:26:11;;;;;;;;;;;;;;;30.59;45.12;101898.50;4824805;29;123901;-74
2023/08/23 11:28:38;;;;;;;;;;;;;;;30.60;45.03;101895.59;4829689;29;118339;-73
2023/08/23 11:31:08;;;;;;;;;;;;;;;30.62;44.99;101895.44;4830722;29;118444;-74
2023/08/23 11:33:36;;;;;;;;;;;;;;;30.69;45.10;101896.44;4826683;29;125291;-73
2023/08/23 11:36:04;;;;;;;;;;;;;;;30.77;45.19;101901.88;4831181;29;122974;-73
2023/08/23 11:38:31;;;;;;;;;;;;;;;30.86;45.18;101894.50;4830573;29;119469;-73
2023/08/23 11:40:58;;;;;;;;;;;;;;;30.91;44.84;101897.59;4827496;29;119019;-74
2023/08/23 11:43:31;;;;;;;;;;;;;;;30.96;44.68;101891.56;4829167;29;124466;-73
2023/08/23 11:45:58;;;;;;;;;;;;;;;31.01;44.88;101892.75;4826206;29;122921;-73
2023/08/23 11:48:25;;;;;;;;;;;;;;;31.06;44.56;101889.47;4831018;29;119786;-74
2023/08/23 11:50:52;;;;;;;;;;;;;;;31.14;44.55;101886.69;4830814;29;118795;-73
2023/08/23 11:53:19;;;;;;;;;;;;;;;31.16;44.66;101890.09;4825113;29;125003;-74
2023/08/23 11:55:48;;;;;;;;;;;;;;;31.17;44.54;101897.25;4828466;29;124286;-74
2023/08/23 11:58:15;;;;;;;;;;;;;;;31.19;44.53;101895.22;4844424;29;119773;-73
2023/08/23 12:00:42;;;;;;;;;;;;;;;31.18;44.22;101901.72;4831228;29;119655;-73
2023/08/23 12:03:09;;;;;;;;;;;;;;;31.19;43.98;101900.69;4827195;29;124468;-74
2023/08/23 12:05:36;;;;;;;;;;;;;;;31.22;44.22;101894.84;4828329;29;124209;-74
2023/08/23 12:08:03;;;;;;;;;;;;;;;31.29;44.36;101905.94;4827255;29;119525;-73
2023/08/23 12:10:31;;;;;;;;;;;;;;;31.30;44.23;101901.31;4830216;29;118718;-73
2023/08/23 12:12:58;;;;;;;;;;;;;;;31.32;44.18;101899.25;4826683;29;124922;-73
2023/08/23 12:15:25;;;;;;;;;;;;;;;31.37;44.21;101896.81;4826510;29;124256;-72
2023/08/23 12:17:55;;;;;;;;;;;;;;;31.40;44.13;101890.97;4827018;29;119490;-73
2023/08/23 12:20:23;;;;;;;;;;;;;;;31.44;43.90;101897.81;4829950;29;118772;-73
2023/08/23 12:22:50;;;;;;;;;;;;;;;31.51;44.13;101892.47;4820731;29;124156;-72
2023/08/23 12:25:17;;;;;;;;;;;;;;;31.54;44.07;101894.84;4809220;29;123484;-72
2023/08/23 12:27:44;;;;;;;;;;;;;;;31.55;43.94;101889.19;4838334;29;119890;-72
2023/08/23 12:30:13;;;;;;;;;;;;;;;31.60;44.03;101892.22;4830179;29;119582;-72